createdAt,value
2023-01-23T00:00:17.825Z,94.43
2023-01-23T00:03:06.309Z,94.25
2023-01-23T00:05:34.685Z,94.58
2023-01-23T00:08:03.196Z,94.83
2023-01-23T00:10:31.553Z,94.82
2023-01-23T00:13:00.170Z,94.49
2023-01-23T00:15:28.606Z,94.86
2023-01-23T00:17:57.440Z,95.29
2023-01-23T00:20:25.762Z,95.00
2023-01-23T00:22:54.815Z,95.19
2023-01-23T00:25:23.156Z,95.03
2023-01-23T00:27:51.541Z,94.23
2023-01-23T00:30:20.307Z,94.12
2023-01-23T00:32:48.766Z,94.10
2023-01-23T00:35:17.715Z,93.92
2023-01-23T00:37:46.585Z,94.01
2023-01-23T00:40:15.187Z,94.25
2023-01-23T00:42:43.540Z,94.85
2023-01-23T00:45:12.933Z,95.01
2023-01-23T00:47:41.954Z,94.94
2023-01-23T00:50:12.311Z,94.90
2023-01-23T00:52:40.672Z,94.93
2023-01-23T00:55:10.736Z,95.77
2023-01-23T00:57:39.142Z,95.72
2023-01-23T01:00:11.531Z,95.53
2023-01-23T01:02:39.883Z,95.51
2023-01-23T01:05:09.614Z,95.78
2023-01-23T01:07:38.021Z,96.21
2023-01-23T01:10:08.656Z,96.85
2023-01-23T01:12:39.144Z,97.27
2023-01-23T01:15:10.634Z,97.31
2023-01-23T01:17:40.387Z,97.23
2023-01-23T01:20:11.333Z,97.17
2023-01-23T01:22:39.809Z,97.25
2023-01-23T01:25:09.449Z,97.32
2023-01-23T01:27:37.987Z,97.44
2023-01-23T01:30:08.910Z,97.43
2023-01-23T01:32:38.905Z,97.55
2023-01-23T01:35:09.623Z,97.42
2023-01-23T01:37:39.927Z,97.46
2023-01-23T01:40:15.712Z,97.49
2023-01-23T01:42:47.029Z,97.51
2023-01-23T01:45:51.966Z,98.18
2023-01-23T01:48:23.378Z,98.16
2023-01-23T01:50:52.768Z,98.04
2023-01-23T01:53:25.553Z,97.93
2023-01-23T01:55:54.426Z,97.82
2023-01-23T01:58:23.934Z,98.30
2023-01-23T02:00:52.575Z,98.72
2023-01-23T02:03:21.752Z,99.39
2023-01-23T02:05:51.307Z,99.47
2023-01-23T02:08:26.947Z,99.98
2023-01-23T02:10:56.050Z,99.99
2023-01-23T02:13:31.641Z,99.62
2023-01-23T02:16:03.056Z,99.23
2023-01-23T02:18:34.368Z,98.63
2023-01-23T02:21:07.600Z,98.13
2023-01-23T02:23:46.505Z,98.08
2023-01-23T02:26:21.308Z,97.99
2023-01-23T02:28:52.684Z,97.95
2023-01-23T02:31:23.345Z,98.13
2023-01-23T02:33:54.095Z,98.41
2023-01-23T02:36:25.738Z,98.41
2023-01-23T02:39:01.086Z,98.38
2023-01-23T02:41:31.423Z,98.31
2023-01-23T02:44:04.184Z,97.76
2023-01-23T02:46:31.819Z,97.48
2023-01-23T02:49:00.265Z,97.04
2023-01-23T02:51:29.110Z,96.79
2023-01-23T02:53:57.965Z,96.93
2023-01-23T02:56:27.461Z,96.68
2023-01-23T02:59:15.046Z,96.24
2023-01-23T03:01:44.002Z,95.96
2023-01-23T03:04:14.549Z,95.92
2023-01-23T03:06:43.090Z,95.92
2023-01-23T03:09:14.007Z,96.03
2023-01-23T03:11:44.471Z,96.04
2023-01-23T03:14:16.870Z,95.87
2023-01-23T03:16:49.557Z,96.11
2023-01-23T03:19:19.028Z,96.74
2023-01-23T03:21:47.420Z,96.55
2023-01-23T03:24:16.251Z,96.45
2023-01-23T03:26:46.603Z,96.56
2023-01-23T03:29:35.152Z,96.85
2023-01-23T03:32:04.679Z,96.91
2023-01-23T03:34:33.484Z,96.48
2023-01-23T03:37:02.931Z,96.57
2023-01-23T03:39:50.073Z,96.81
2023-01-23T03:42:19.729Z,96.74
2023-01-23T03:44:48.767Z,96.85
2023-01-23T03:47:17.560Z,96.93
2023-01-23T03:49:45.974Z,96.76
2023-01-23T03:52:14.945Z,96.79
2023-01-23T03:54:44.248Z,97.18
2023-01-23T03:57:12.592Z,96.94
2023-01-23T04:00:00.125Z,97.10
2023-01-23T04:02:42.126Z,97.04
2023-01-23T04:05:13.046Z,96.92
2023-01-23T04:07:41.421Z,97.01
2023-01-23T04:10:13.156Z,97.28
2023-01-23T04:12:43.556Z,96.94
2023-01-23T04:15:13.010Z,96.52
2023-01-23T04:17:42.515Z,96.46
2023-01-23T04:20:12.770Z,96.54
2023-01-23T04:22:42.705Z,96.91
2023-01-23T04:25:11.534Z,96.92
2023-01-23T04:27:40.123Z,97.22
2023-01-23T04:30:11.810Z,97.81
2023-01-23T04:32:40.528Z,97.90
2023-01-23T04:35:09.943Z,98.15
2023-01-23T04:37:39.649Z,97.87
2023-01-23T04:40:11.905Z,97.54
2023-01-23T04:42:50.721Z,97.33
2023-01-23T04:45:31.617Z,96.92
2023-01-23T04:48:20.346Z,96.87
2023-01-23T04:50:50.677Z,97.01
2023-01-23T04:53:19.389Z,96.81
2023-01-23T04:55:49.880Z,96.55
2023-01-23T04:58:19.798Z,96.47
2023-01-23T05:00:48.363Z,97.10
2023-01-23T05:03:17.745Z,97.29
2023-01-23T05:05:48.699Z,97.05
2023-01-23T05:08:17.138Z,97.14
2023-01-23T05:10:50.286Z,97.40
2023-01-23T05:13:19.502Z,97.61
2023-01-23T05:15:48.615Z,97.52
2023-01-23T05:18:18.413Z,97.62
2023-01-23T05:20:47.587Z,97.90
2023-01-23T05:23:16.350Z,97.88
2023-01-23T05:25:49.572Z,97.97
2023-01-23T05:28:17.958Z,98.01
2023-01-23T05:30:49.695Z,97.71
2023-01-23T05:33:25.051Z,97.35
2023-01-23T05:35:53.489Z,97.26
2023-01-23T05:38:21.899Z,97.20
2023-01-23T05:40:50.588Z,97.03
2023-01-23T05:43:36.508Z,97.16
2023-01-23T05:46:28.154Z,97.61
2023-01-23T05:48:57.864Z,97.94
2023-01-23T05:51:31.606Z,98.03
2023-01-23T05:54:01.649Z,97.44
2023-01-23T05:56:30.335Z,97.16
2023-01-23T05:59:17.543Z,97.34
2023-01-23T06:02:06.225Z,96.99
2023-01-23T06:05:01.118Z,97.06
2023-01-23T06:07:38.242Z,96.75
2023-01-23T06:10:10.367Z,96.42
2023-01-23T06:12:38.728Z,96.39
2023-01-23T06:15:08.853Z,96.51
2023-01-23T06:17:37.377Z,96.45
2023-01-23T06:20:10.240Z,96.11
2023-01-23T06:22:39.816Z,96.35
2023-01-23T06:25:11.940Z,96.15
2023-01-23T06:27:40.582Z,96.15
2023-01-23T06:30:13.737Z,95.89
2023-01-23T06:32:43.945Z,95.51
2023-01-23T06:35:12.569Z,95.33
2023-01-23T06:37:42.673Z,95.35
2023-01-23T06:40:14.952Z,95.76
2023-01-23T06:42:50.194Z,96.02
2023-01-23T06:45:19.505Z,96.42
2023-01-23T06:47:48.158Z,96.23
2023-01-23T06:50:18.015Z,95.93
2023-01-23T06:52:46.725Z,95.59
2023-01-23T06:55:15.155Z,95.57
2023-01-23T06:57:45.047Z,95.80
2023-01-23T07:00:16.233Z,95.68
2023-01-23T07:02:45.815Z,95.78
2023-01-23T07:05:15.503Z,95.65
2023-01-23T07:07:47.512Z,95.55
2023-01-23T07:10:16.050Z,95.49
2023-01-23T07:12:44.783Z,94.82
2023-01-23T07:15:13.253Z,94.95
2023-01-23T07:17:42.446Z,95.18
2023-01-23T07:20:13.551Z,95.26
2023-01-23T07:22:44.406Z,95.19
2023-01-23T07:25:12.960Z,95.29
2023-01-23T07:27:41.579Z,95.16
2023-01-23T07:30:12.465Z,94.98
2023-01-23T07:32:41.027Z,95.33
2023-01-23T07:35:12.197Z,95.43
2023-01-23T07:37:40.763Z,95.55
2023-01-23T07:40:12.334Z,95.39
2023-01-23T07:42:43.909Z,95.10
2023-01-23T07:45:13.445Z,95.43
2023-01-23T07:47:44.127Z,95.81
2023-01-23T07:50:13.840Z,96.26
2023-01-23T07:52:42.203Z,96.47
2023-01-23T07:55:10.756Z,96.21
2023-01-23T07:57:39.313Z,96.01
2023-01-23T08:00:10.791Z,96.17
2023-01-23T08:02:41.933Z,96.38
2023-01-23T08:05:10.994Z,96.55
2023-01-23T08:07:39.630Z,96.66
2023-01-23T08:10:11.221Z,96.97
2023-01-23T08:12:39.811Z,96.92
2023-01-23T08:15:09.999Z,96.91
2023-01-23T08:17:38.370Z,96.70
2023-01-23T08:20:09.926Z,96.28
2023-01-23T08:22:40.256Z,95.76
2023-01-23T08:25:10.653Z,95.55
2023-01-23T08:27:39.060Z,95.18
2023-01-23T08:30:10.238Z,94.76
2023-01-23T08:32:39.088Z,94.43
2023-01-23T08:35:09.263Z,94.73
2023-01-23T08:37:38.120Z,95.36
2023-01-23T08:40:09.577Z,95.69
2023-01-23T08:42:38.013Z,95.34
2023-01-23T08:45:09.294Z,95.93
2023-01-23T08:47:37.927Z,95.94
2023-01-23T08:50:10.500Z,95.75
2023-01-23T08:52:39.475Z,95.37
2023-01-23T08:55:11.964Z,94.91
2023-01-23T08:57:40.380Z,94.66
2023-01-23T09:00:13.317Z,94.44
2023-01-23T09:02:42.078Z,94.68
2023-01-23T09:05:11.218Z,95.04
2023-01-23T09:07:40.218Z,95.81
2023-01-23T09:10:12.434Z,95.82
2023-01-23T09:12:42.038Z,95.04
2023-01-23T09:15:22.633Z,94.21
2023-01-23T09:17:51.209Z,94.02
2023-01-23T09:20:20.664Z,94.35
2023-01-23T09:22:49.569Z,94.84
2023-01-23T09:25:18.386Z,94.60
2023-01-23T09:27:47.047Z,94.32
2023-01-23T09:30:16.460Z,94.09
2023-01-23T09:32:45.313Z,94.34
2023-01-23T09:35:14.440Z,94.51
2023-01-23T09:38:00.803Z,94.16
2023-01-23T09:40:32.161Z,94.08
2023-01-23T09:43:11.393Z,93.93
2023-01-23T09:45:43.229Z,93.42
2023-01-23T09:48:20.896Z,93.58
2023-01-23T09:50:56.272Z,93.09
2023-01-23T09:53:30.457Z,92.91
2023-01-23T09:56:04.143Z,92.63
2023-01-23T09:58:38.876Z,92.15
2023-01-23T10:01:10.956Z,92.07
2023-01-23T10:03:40.281Z,92.31
2023-01-23T10:06:21.134Z,92.60
2023-01-23T10:09:31.874Z,92.68
2023-01-23T10:12:10.109Z,92.46
2023-01-23T10:15:02.954Z,91.91
2023-01-23T10:17:41.180Z,91.84
2023-01-23T10:20:29.646Z,92.46
2023-01-23T10:23:11.771Z,92.35
2023-01-23T10:25:40.806Z,92.53
2023-01-23T10:28:29.019Z,92.73
2023-01-23T10:31:01.156Z,92.56
2023-01-23T10:33:40.677Z,92.51
2023-01-23T10:36:23.946Z,92.07
2023-01-23T10:39:00.169Z,92.05
2023-01-23T10:41:28.907Z,91.82
2023-01-23T10:44:00.174Z,91.95
2023-01-23T10:46:33.142Z,91.91
2023-01-23T10:49:02.795Z,91.81
2023-01-23T10:51:46.046Z,91.31
2023-01-23T10:54:31.333Z,91.06
2023-01-23T10:57:04.012Z,90.57
2023-01-23T10:59:35.904Z,90.59
2023-01-23T11:02:20.479Z,90.91
2023-01-23T11:04:53.986Z,90.40
2023-01-23T11:07:23.630Z,90.51
2023-01-23T11:09:55.633Z,90.56
2023-01-23T11:12:26.119Z,90.72
2023-01-23T11:15:12.669Z,90.88
2023-01-23T11:17:43.255Z,91.32
2023-01-23T11:20:24.143Z,91.94
2023-01-23T11:23:04.136Z,92.44
2023-01-23T11:25:36.832Z,92.72
2023-01-23T11:28:24.210Z,92.73
2023-01-23T11:31:12.288Z,92.84
2023-01-23T11:33:47.275Z,93.43
2023-01-23T11:36:38.321Z,93.58
2023-01-23T11:39:18.440Z,93.74
2023-01-23T11:41:47.835Z,93.56
2023-01-23T11:44:20.067Z,93.03
2023-01-23T11:47:13.044Z,92.32
2023-01-23T11:50:02.570Z,92.40
2023-01-23T11:52:42.737Z,92.76
2023-01-23T11:55:29.439Z,93.04
2023-01-23T11:58:06.379Z,93.58
2023-01-23T12:00:38.298Z,93.49
2023-01-23T12:03:52.173Z,92.85
2023-01-23T12:06:34.964Z,93.94
2023-01-23T12:09:09.129Z,94.22
2023-01-23T12:11:48.384Z,94.43
2023-01-23T12:14:25.552Z,93.90
2023-01-23T12:17:08.298Z,93.55
2023-01-23T12:20:01.230Z,93.83
2023-01-23T12:22:33.808Z,94.05
2023-01-23T12:25:21.711Z,93.88
2023-01-23T12:27:58.958Z,93.37
2023-01-23T12:30:46.303Z,97.17
2023-01-23T12:33:34.796Z,93.42
2023-01-23T12:36:19.295Z,92.26
2023-01-23T12:38:56.965Z,92.10
2023-01-23T12:41:36.995Z,92.52
2023-01-23T12:44:13.853Z,92.44
2023-01-23T12:46:49.457Z,92.29
2023-01-23T12:49:31.274Z,92.34
2023-01-23T12:52:05.442Z,92.44
2023-01-23T12:54:40.781Z,92.98
2023-01-23T12:57:12.357Z,93.71
2023-01-23T12:59:57.694Z,93.33
2023-01-23T13:02:38.666Z,93.11
2023-01-23T13:05:19.361Z,93.47
2023-01-23T13:07:55.730Z,93.65
2023-01-23T13:10:58.710Z,93.68
2023-01-23T13:13:28.069Z,93.71
2023-01-23T13:16:10.312Z,93.62
2023-01-23T13:18:58.160Z,93.30
2023-01-23T13:21:44.856Z,93.24
2023-01-23T13:25:02.193Z,93.82
2023-01-23T13:27:44.164Z,94.25
2023-01-23T13:30:40.418Z,94.22
2023-01-23T13:33:55.067Z,93.99
2023-01-23T13:36:37.988Z,94.30
2023-01-23T13:39:20.519Z,93.86
2023-01-23T13:41:51.753Z,93.63
2023-01-23T13:44:27.065Z,93.41
2023-01-23T14:20:38.917Z,94.88
2023-01-23T14:23:29.956Z,94.84
2023-01-23T14:25:58.550Z,94.86
2023-01-23T14:28:27.096Z,95.02
2023-01-23T14:30:58.416Z,94.80
2023-01-23T14:33:28.168Z,94.43
2023-01-23T14:35:57.240Z,94.45
2023-01-23T14:38:29.917Z,94.81
2023-01-23T14:40:59.117Z,97.46
2023-01-23T14:43:31.991Z,95.09
2023-01-23T14:46:03.905Z,95.20
2023-01-23T14:48:39.788Z,95.08
2023-01-23T14:51:18.687Z,95.22
2023-01-23T14:53:54.169Z,95.84
2023-01-23T14:56:27.427Z,95.89
2023-01-23T14:58:58.594Z,95.73
2023-01-23T15:01:27.920Z,95.42
2023-01-23T15:03:58.945Z,95.12
2023-01-23T15:06:28.323Z,95.16
2023-01-23T15:09:13.269Z,95.06
2023-01-23T15:11:42.407Z,94.93
2023-01-23T15:14:24.877Z,95.17
2023-01-23T15:17:01.748Z,95.93
2023-01-23T15:19:34.415Z,96.56
2023-01-23T15:22:08.265Z,96.05
2023-01-23T15:24:39.777Z,95.61
2023-01-23T15:27:25.635Z,95.45
2023-01-23T15:30:43.630Z,95.67
2023-01-23T15:33:28.206Z,96.29
2023-01-23T15:36:07.798Z,96.23
2023-01-23T15:38:36.606Z,96.51
2023-01-23T15:41:10.229Z,96.72
2023-01-23T15:43:40.000Z,96.31
2023-01-23T15:46:11.378Z,95.93
2023-01-23T15:48:39.737Z,96.01
2023-01-23T15:51:12.028Z,96.20
2023-01-23T15:53:40.398Z,96.19
2023-01-23T15:56:24.007Z,96.18
2023-01-23T15:58:53.110Z,96.58
2023-01-23T16:01:21.579Z,96.92
2023-01-23T16:03:49.909Z,96.80
2023-01-23T16:06:21.718Z,96.46
2023-01-23T16:09:00.864Z,96.61
2023-01-23T16:11:35.003Z,96.98
2023-01-23T16:14:03.587Z,96.68
2023-01-23T16:16:32.590Z,96.37
2023-01-23T16:19:01.456Z,96.17
2023-01-23T16:21:31.261Z,96.45
2023-01-23T16:24:00.420Z,96.92
2023-01-23T16:26:30.312Z,96.95
2023-01-23T16:29:13.215Z,96.63
2023-01-23T16:31:42.409Z,96.22
2023-01-23T16:34:10.888Z,96.03
2023-01-23T16:36:40.354Z,96.05
2023-01-23T16:39:16.750Z,97.37
2023-01-23T16:41:45.944Z,97.51
2023-01-23T16:44:17.581Z,96.75
2023-01-23T16:46:46.112Z,96.21
2023-01-23T16:49:15.019Z,95.98
2023-01-23T16:51:48.059Z,95.68
2023-01-23T16:54:19.249Z,95.60
2023-01-23T16:56:51.011Z,95.31
2023-01-23T16:59:26.127Z,95.26
2023-01-23T17:01:56.793Z,94.95
2023-01-23T17:04:26.909Z,95.17
2023-01-23T17:06:55.281Z,95.30
2023-01-23T17:09:24.120Z,95.14
2023-01-23T17:11:55.074Z,95.36
2023-01-23T17:14:28.621Z,95.13
2023-01-23T17:17:02.857Z,94.73
2023-01-23T17:19:35.256Z,94.85
2023-01-23T17:22:06.092Z,95.11
2023-01-23T17:24:34.483Z,95.34
2023-01-23T17:27:03.630Z,95.34
2023-01-23T17:29:32.973Z,96.02
2023-01-23T17:32:02.410Z,96.59
2023-01-23T17:34:45.104Z,96.58
2023-01-23T17:37:21.098Z,97.51
2023-01-23T17:39:49.753Z,98.95
2023-01-23T17:42:18.140Z,97.67
2023-01-23T17:44:46.510Z,97.60
2023-01-23T17:47:16.127Z,97.82
2023-01-23T17:49:50.322Z,97.50
2023-01-23T17:52:20.901Z,97.82
2023-01-23T17:54:49.514Z,97.59
2023-01-23T17:57:18.456Z,97.30
2023-01-23T17:59:47.037Z,97.41
2023-01-23T18:02:25.480Z,97.29
2023-01-23T18:04:54.066Z,96.78
2023-01-23T18:07:22.484Z,96.41
2023-01-23T18:09:51.724Z,96.25
2023-01-23T18:12:28.586Z,96.61
2023-01-23T18:15:04.940Z,99.83
2023-01-23T18:17:42.284Z,97.70
2023-01-23T18:20:21.528Z,96.24
2023-01-23T18:22:51.227Z,95.97
2023-01-23T18:25:21.509Z,96.04
2023-01-23T18:27:54.584Z,96.30
2023-01-23T18:30:42.817Z,96.10
2023-01-23T18:33:36.340Z,96.02
2023-01-23T18:36:18.509Z,95.76
2023-01-23T18:39:05.817Z,96.32
2023-01-23T18:41:34.869Z,97.64
2023-01-23T18:44:09.760Z,95.75
2023-01-23T18:46:39.245Z,95.24
2023-01-23T18:49:09.677Z,95.51
2023-01-23T18:51:45.770Z,95.52
2023-01-23T18:54:25.467Z,95.46
2023-01-23T18:57:06.712Z,95.55
2023-01-23T18:59:40.654Z,95.62
2023-01-23T19:02:23.985Z,95.86
2023-01-23T19:05:03.603Z,96.18
2023-01-23T19:07:33.101Z,96.02
2023-01-23T19:10:02.242Z,95.83
2023-01-23T19:12:40.261Z,95.77
2023-01-23T19:15:22.896Z,95.69
2023-01-23T19:18:00.298Z,96.32
2023-01-23T19:20:35.688Z,96.10
2023-01-23T19:23:18.034Z,95.81
2023-01-23T19:25:47.384Z,95.33
2023-01-23T19:28:16.753Z,95.29
2023-01-23T19:30:46.265Z,95.42
2023-01-23T19:33:17.106Z,96.29
2023-01-23T19:35:47.181Z,96.89
2023-01-23T19:38:16.232Z,96.89
2023-01-23T19:40:46.139Z,97.01
2023-01-23T19:43:16.021Z,96.83
2023-01-23T19:45:45.223Z,96.34
2023-01-23T19:48:14.050Z,95.84
2023-01-23T19:50:43.271Z,95.53
2023-01-23T19:53:13.543Z,95.45
2023-01-23T19:55:42.089Z,95.30
2023-01-23T19:58:10.665Z,95.20
2023-01-23T20:00:43.765Z,95.04
2023-01-23T20:03:13.855Z,98.99
2023-01-23T20:05:42.286Z,98.97
2023-01-23T20:08:10.814Z,100.00
2023-01-23T20:10:39.294Z,100.00
2023-01-23T20:13:08.381Z,100.00
2023-01-23T20:15:43.104Z,100.00
2023-01-23T20:18:12.304Z,97.89
2023-01-23T20:20:40.716Z,96.24
2023-01-23T20:23:09.143Z,95.61
2023-01-23T20:25:38.050Z,96.04
2023-01-23T20:28:13.958Z,95.49
2023-01-23T20:30:42.907Z,95.37
2023-01-23T20:33:12.575Z,95.30
2023-01-23T20:35:41.245Z,94.85
2023-01-23T20:38:09.652Z,94.82
2023-01-23T20:40:38.454Z,94.94
2023-01-23T20:43:07.681Z,95.01
2023-01-23T20:45:36.441Z,94.87
2023-01-23T20:48:06.181Z,94.86
2023-01-23T20:50:36.799Z,94.82
2023-01-23T20:53:23.468Z,94.59
2023-01-23T20:55:55.169Z,94.49
2023-01-23T20:58:43.453Z,94.47
2023-01-23T21:01:15.678Z,94.96
2023-01-23T21:03:47.274Z,95.28
2023-01-23T21:06:18.564Z,95.66
2023-01-23T21:08:47.738Z,100.00
2023-01-23T21:11:18.487Z,100.00
2023-01-23T21:13:52.760Z,100.00
2023-01-23T21:16:21.508Z,97.49
2023-01-23T21:18:50.005Z,95.43
2023-01-23T21:21:20.705Z,94.84
2023-01-23T21:24:02.354Z,94.67
2023-01-23T21:26:31.018Z,94.99
2023-01-23T21:29:00.089Z,95.57
2023-01-23T21:31:36.305Z,95.56
2023-01-23T21:34:08.981Z,95.20
2023-01-23T21:36:38.912Z,94.82
2023-01-23T21:39:09.416Z,94.95
2023-01-23T21:41:38.783Z,95.55
2023-01-23T21:44:09.777Z,96.69
2023-01-23T21:46:38.727Z,96.13
2023-01-23T21:49:16.315Z,95.56
2023-01-23T21:51:44.826Z,95.12
2023-01-23T21:54:13.412Z,95.20
2023-01-23T21:56:41.920Z,95.37
2023-01-23T21:59:11.696Z,95.17
2023-01-23T22:01:42.038Z,95.15
2023-01-23T22:04:12.249Z,94.99
2023-01-23T22:06:42.606Z,95.73
2023-01-23T22:09:14.878Z,95.80
2023-01-23T22:11:44.007Z,95.27
2023-01-23T22:14:12.908Z,95.13
2023-01-23T22:16:50.325Z,95.15
2023-01-23T22:19:24.646Z,95.10
2023-01-23T22:21:54.804Z,95.07
2023-01-23T22:24:23.743Z,94.74
2023-01-23T22:26:52.375Z,94.79
2023-01-23T22:29:22.051Z,95.68
2023-01-23T22:31:51.553Z,96.32
2023-01-23T22:34:20.324Z,96.22
2023-01-23T22:36:48.861Z,95.86
2023-01-23T22:39:19.002Z,95.79
2023-01-23T22:41:49.281Z,96.18
2023-01-23T22:44:18.252Z,96.34
2023-01-23T22:46:49.268Z,96.91
2023-01-23T22:49:17.555Z,96.87
2023-01-23T22:51:46.881Z,96.49
2023-01-23T22:54:15.752Z,96.55
2023-01-23T22:56:44.591Z,96.24
2023-01-23T22:59:13.063Z,95.94
2023-01-23T23:01:41.354Z,96.17
2023-01-23T23:04:10.479Z,96.77
2023-01-23T23:06:39.183Z,97.40
2023-01-23T23:09:10.039Z,97.58
2023-01-23T23:11:39.361Z,97.41
2023-01-23T23:14:08.560Z,97.09
2023-01-23T23:19:30.893Z,96.57
2023-01-23T23:21:59.293Z,96.60
2023-01-23T23:24:28.032Z,96.31
2023-01-23T23:26:56.489Z,95.98
2023-01-23T23:29:24.928Z,95.62
2023-01-23T23:31:53.772Z,95.81
2023-01-23T23:34:22.240Z,95.44
2023-01-23T23:36:50.556Z,95.64
2023-01-23T23:39:19.396Z,95.63
2023-01-23T23:41:47.866Z,95.51
2023-01-23T23:44:16.219Z,95.49
2023-01-23T23:46:44.600Z,95.66
2023-01-23T23:49:13.494Z,96.05
2023-01-23T23:51:41.825Z,96.33
2023-01-23T23:54:10.473Z,96.20
2023-01-23T23:56:39.126Z,95.97
2023-01-23T23:59:12.264Z,96.27
